sensor_id;sensor_type;location;lat;lon;timestamp;P1;durP1;ratioP1;P2;durP2;ratioP2
37280;SDS011;23169;41.804;12.596;2023-04-21T00:01:25;17.25;;;8.93;;
37280;SDS011;23169;41.804;12.596;2023-04-21T00:03:56;18.52;;;8.75;;
37280;SDS011;23169;41.804;12.596;2023-04-21T00:06:26;19.50;;;10.50;;
37280;SDS011;23169;41.804;12.596;2023-04-21T00:08:55;20.55;;;10.15;;
37280;SDS011;23169;41.804;12.596;2023-04-21T00:11:24;20.95;;;10.35;;
37280;SDS011;23169;41.804;12.596;2023-04-21T00:13:53;21.00;;;11.45;;
37280;SDS011;23169;41.804;12.596;2023-04-21T00:16:22;22.63;;;11.77;;
37280;SDS011;23169;41.804;12.596;2023-04-21T00:19:01;23.42;;;11.27;;
37280;SDS011;23169;41.804;12.596;2023-04-21T00:21:35;21.83;;;11.43;;
37280;SDS011;23169;41.804;12.596;2023-04-21T00:24:06;24.52;;;11.13;;
37280;SDS011;23169;41.804;12.596;2023-04-21T00:26:35;22.77;;;10.77;;
37280;SDS011;23169;41.804;12.596;2023-04-21T00:29:04;22.92;;;11.13;;
37280;SDS011;23169;41.804;12.596;2023-04-21T00:31:36;25.38;;;11.75;;
37280;SDS011;23169;41.804;12.596;2023-04-21T00:34:10;23.73;;;12.25;;
37280;SDS011;23169;41.804;12.596;2023-04-21T00:36:42;23.73;;;11.50;;
37280;SDS011;23169;41.804;12.596;2023-04-21T00:39:18;22.58;;;11.75;;
37280;SDS011;23169;41.804;12.596;2023-04-21T00:44:23;21.90;;;11.05;;
37280;SDS011;23169;41.804;12.596;2023-04-21T00:46:53;22.17;;;10.88;;
37280;SDS011;23169;41.804;12.596;2023-04-21T00:49:21;20.63;;;10.13;;
37280;SDS011;23169;41.804;12.596;2023-04-21T00:51:51;22.33;;;10.65;;
37280;SDS011;23169;41.804;12.596;2023-04-21T00:54:22;24.40;;;10.35;;
37280;SDS011;23169;41.804;12.596;2023-04-21T00:56:53;18.58;;;9.82;;
37280;SDS011;23169;41.804;12.596;2023-04-21T00:59:24;21.60;;;11.02;;
37280;SDS011;23169;41.804;12.596;2023-04-21T01:01:54;22.45;;;10.68;;
37280;SDS011;23169;41.804;12.596;2023-04-21T01:04:23;23.63;;;11.25;;
37280;SDS011;23169;41.804;12.596;2023-04-21T01:06:52;22.65;;;11.13;;
37280;SDS011;23169;41.804;12.596;2023-04-21T01:09:20;20.02;;;10.05;;
37280;SDS011;23169;41.804;12.596;2023-04-21T01:14:33;22.83;;;9.60;;
37280;SDS011;23169;41.804;12.596;2023-04-21T01:17:05;21.27;;;9.90;;
37280;SDS011;23169;41.804;12.596;2023-04-21T01:19:39;23.30;;;11.43;;
37280;SDS011;23169;41.804;12.596;2023-04-21T01:22:10;21.17;;;10.02;;
37280;SDS011;23169;41.804;12.596;2023-04-21T01:24:44;22.50;;;11.02;;
37280;SDS011;23169;41.804;12.596;2023-04-21T01:27:15;21.52;;;10.85;;
37280;SDS011;23169;41.804;12.596;2023-04-21T01:29:49;23.38;;;11.80;;
37280;SDS011;23169;41.804;12.596;2023-04-21T01:32:22;22.42;;;11.20;;
37280;SDS011;23169;41.804;12.596;2023-04-21T01:34:53;24.20;;;11.27;;
37280;SDS011;23169;41.804;12.596;2023-04-21T01:37:23;22.75;;;11.32;;
37280;SDS011;23169;41.804;12.596;2023-04-21T01:39:55;24.63;;;12.48;;
37280;SDS011;23169;41.804;12.596;2023-04-21T01:42:27;25.73;;;11.93;;
37280;SDS011;23169;41.804;12.596;2023-04-21T01:44:57;25.02;;;12.00;;
37280;SDS011;23169;41.804;12.596;2023-04-21T01:47:26;21.65;;;11.27;;
37280;SDS011;23169;41.804;12.596;2023-04-21T01:49:55;23.52;;;12.13;;
37280;SDS011;23169;41.804;12.596;2023-04-21T01:52:29;24.92;;;12.85;;
37280;SDS011;23169;41.804;12.596;2023-04-21T01:54:57;24.05;;;12.70;;
37280;SDS011;23169;41.804;12.596;2023-04-21T01:57:27;23.42;;;12.45;;
37280;SDS011;23169;41.804;12.596;2023-04-21T01:59:56;25.63;;;12.65;;
37280;SDS011;23169;41.804;12.596;2023-04-21T02:02:25;26.17;;;12.85;;
37280;SDS011;23169;41.804;12.596;2023-04-21T02:04:54;25.95;;;13.65;;
37280;SDS011;23169;41.804;12.596;2023-04-21T02:07:22;27.10;;;13.50;;
37280;SDS011;23169;41.804;12.596;2023-04-21T02:09:51;27.10;;;13.32;;
37280;SDS011;23169;41.804;12.596;2023-04-21T02:12:20;26.55;;;13.27;;
37280;SDS011;23169;41.804;12.596;2023-04-21T02:14:49;24.25;;;12.60;;
37280;SDS011;23169;41.804;12.596;2023-04-21T02:17:18;24.95;;;12.98;;
37280;SDS011;23169;41.804;12.596;2023-04-21T02:19:47;25.27;;;12.63;;
37280;SDS011;23169;41.804;12.596;2023-04-21T02:22:16;25.92;;;13.20;;
37280;SDS011;23169;41.804;12.596;2023-04-21T02:24:48;26.90;;;12.88;;
37280;SDS011;23169;41.804;12.596;2023-04-21T02:27:18;28.40;;;13.43;;
37280;SDS011;23169;41.804;12.596;2023-04-21T02:29:47;27.10;;;13.80;;
37280;SDS011;23169;41.804;12.596;2023-04-21T02:32:16;26.30;;;13.57;;
37280;SDS011;23169;41.804;12.596;2023-04-21T02:34:47;25.67;;;12.93;;
37280;SDS011;23169;41.804;12.596;2023-04-21T02:37:19;26.25;;;13.27;;
37280;SDS011;23169;41.804;12.596;2023-04-21T02:39:48;26.38;;;13.30;;
37280;SDS011;23169;41.804;12.596;2023-04-21T02:42:17;25.60;;;13.05;;
37280;SDS011;23169;41.804;12.596;2023-04-21T02:44:47;27.40;;;12.45;;
37280;SDS011;23169;41.804;12.596;2023-04-21T02:47:16;26.05;;;13.30;;
37280;SDS011;23169;41.804;12.596;2023-04-21T02:49:45;24.42;;;12.63;;
37280;SDS011;23169;41.804;12.596;2023-04-21T02:52:15;26.48;;;13.18;;
37280;SDS011;23169;41.804;12.596;2023-04-21T02:54:43;25.52;;;12.90;;
37280;SDS011;23169;41.804;12.596;2023-04-21T02:57:15;27.90;;;13.05;;
37280;SDS011;23169;41.804;12.596;2023-04-21T02:59:46;26.23;;;13.32;;
37280;SDS011;23169;41.804;12.596;2023-04-21T03:02:15;26.23;;;14.38;;
37280;SDS011;23169;41.804;12.596;2023-04-21T03:04:44;24.42;;;13.40;;
37280;SDS011;23169;41.804;12.596;2023-04-21T03:07:12;29.13;;;14.57;;
37280;SDS011;23169;41.804;12.596;2023-04-21T03:09:43;26.00;;;14.18;;
37280;SDS011;23169;41.804;12.596;2023-04-21T03:12:12;26.27;;;13.55;;
37280;SDS011;23169;41.804;12.596;2023-04-21T03:14:41;30.17;;;14.73;;
37280;SDS011;23169;41.804;12.596;2023-04-21T03:17:09;26.40;;;14.35;;
37280;SDS011;23169;41.804;12.596;2023-04-21T03:19:39;27.70;;;13.75;;
37280;SDS011;23169;41.804;12.596;2023-04-21T03:22:08;29.00;;;14.65;;
37280;SDS011;23169;41.804;12.596;2023-04-21T03:24:37;28.13;;;14.70;;
37280;SDS011;23169;41.804;12.596;2023-04-21T03:27:06;26.48;;;13.45;;
37280;SDS011;23169;41.804;12.596;2023-04-21T03:29:35;26.00;;;13.80;;
37280;SDS011;23169;41.804;12.596;2023-04-21T03:32:04;26.23;;;13.93;;
37280;SDS011;23169;41.804;12.596;2023-04-21T03:34:33;28.65;;;14.52;;
37280;SDS011;23169;41.804;12.596;2023-04-21T03:37:02;26.65;;;13.45;;
37280;SDS011;23169;41.804;12.596;2023-04-21T03:39:33;26.55;;;13.48;;
37280;SDS011;23169;41.804;12.596;2023-04-21T03:42:02;23.85;;;12.38;;
37280;SDS011;23169;41.804;12.596;2023-04-21T03:44:36;26.20;;;13.32;;
37280;SDS011;23169;41.804;12.596;2023-04-21T03:47:06;24.20;;;12.15;;
37280;SDS011;23169;41.804;12.596;2023-04-21T03:49:35;24.23;;;12.55;;
37280;SDS011;23169;41.804;12.596;2023-04-21T03:52:03;24.95;;;12.63;;
37280;SDS011;23169;41.804;12.596;2023-04-21T03:54:32;24.58;;;12.55;;
37280;SDS011;23169;41.804;12.596;2023-04-21T03:57:01;26.67;;;13.07;;
37280;SDS011;23169;41.804;12.596;2023-04-21T03:59:30;25.20;;;12.98;;
37280;SDS011;23169;41.804;12.596;2023-04-21T04:01:59;25.95;;;13.10;;
37280;SDS011;23169;41.804;12.596;2023-04-21T04:04:31;25.13;;;13.15;;
37280;SDS011;23169;41.804;12.596;2023-04-21T04:07:03;24.77;;;13.10;;
37280;SDS011;23169;41.804;12.596;2023-04-21T04:09:35;25.15;;;12.95;;
37280;SDS011;23169;41.804;12.596;2023-04-21T04:12:04;28.38;;;14.15;;
37280;SDS011;23169;41.804;12.596;2023-04-21T04:14:33;27.80;;;14.25;;
37280;SDS011;23169;41.804;12.596;2023-04-21T04:17:02;27.58;;;14.15;;
37280;SDS011;23169;41.804;12.596;2023-04-21T04:19:31;27.27;;;14.27;;
37280;SDS011;23169;41.804;12.596;2023-04-21T04:22:03;29.85;;;15.15;;
37280;SDS011;23169;41.804;12.596;2023-04-21T04:24:32;28.65;;;13.75;;
37280;SDS011;23169;41.804;12.596;2023-04-21T04:27:03;27.80;;;14.45;;
37280;SDS011;23169;41.804;12.596;2023-04-21T04:29:32;28.13;;;14.35;;
37280;SDS011;23169;41.804;12.596;2023-04-21T04:32:01;30.80;;;14.55;;
37280;SDS011;23169;41.804;12.596;2023-04-21T04:34:33;27.15;;;13.95;;
37280;SDS011;23169;41.804;12.596;2023-04-21T04:37:05;26.15;;;12.82;;
37280;SDS011;23169;41.804;12.596;2023-04-21T04:39:34;25.75;;;13.48;;
37280;SDS011;23169;41.804;12.596;2023-04-21T04:42:07;25.10;;;12.18;;
37280;SDS011;23169;41.804;12.596;2023-04-21T04:44:42;26.00;;;13.45;;
37280;SDS011;23169;41.804;12.596;2023-04-21T04:47:11;26.77;;;13.13;;
37280;SDS011;23169;41.804;12.596;2023-04-21T04:49:40;24.95;;;12.63;;
37280;SDS011;23169;41.804;12.596;2023-04-21T04:52:09;24.20;;;11.82;;
37280;SDS011;23169;41.804;12.596;2023-04-21T04:54:37;25.73;;;11.77;;
37280;SDS011;23169;41.804;12.596;2023-04-21T04:57:06;25.70;;;11.95;;
37280;SDS011;23169;41.804;12.596;2023-04-21T04:59:39;22.90;;;11.40;;
37280;SDS011;23169;41.804;12.596;2023-04-21T05:02:07;23.75;;;11.40;;
37280;SDS011;23169;41.804;12.596;2023-04-21T05:04:38;23.15;;;12.07;;
37280;SDS011;23169;41.804;12.596;2023-04-21T05:07:08;27.63;;;14.10;;
37280;SDS011;23169;41.804;12.596;2023-04-21T05:09:37;25.90;;;12.73;;
37280;SDS011;23169;41.804;12.596;2023-04-21T05:12:06;25.85;;;13.82;;
37280;SDS011;23169;41.804;12.596;2023-04-21T05:14:36;27.63;;;13.52;;
37280;SDS011;23169;41.804;12.596;2023-04-21T05:17:05;25.88;;;12.57;;
37280;SDS011;23169;41.804;12.596;2023-04-21T05:19:34;25.30;;;13.60;;
37280;SDS011;23169;41.804;12.596;2023-04-21T05:22:04;30.42;;;14.43;;
37280;SDS011;23169;41.804;12.596;2023-04-21T05:24:34;33.95;;;18.17;;
37280;SDS011;23169;41.804;12.596;2023-04-21T05:27:02;39.28;;;21.33;;
37280;SDS011;23169;41.804;12.596;2023-04-21T05:29:32;42.92;;;23.13;;
37280;SDS011;23169;41.804;12.596;2023-04-21T05:32:03;43.83;;;24.13;;
37280;SDS011;23169;41.804;12.596;2023-04-21T05:34:33;41.38;;;24.42;;
37280;SDS011;23169;41.804;12.596;2023-04-21T05:37:05;39.15;;;21.38;;
37280;SDS011;23169;41.804;12.596;2023-04-21T05:39:34;34.88;;;20.15;;
37280;SDS011;23169;41.804;12.596;2023-04-21T05:42:03;37.72;;;20.02;;
37280;SDS011;23169;41.804;12.596;2023-04-21T05:44:33;37.80;;;19.00;;
37280;SDS011;23169;41.804;12.596;2023-04-21T05:47:05;32.53;;;17.13;;
37280;SDS011;23169;41.804;12.596;2023-04-21T05:49:37;28.80;;;15.00;;
37280;SDS011;23169;41.804;12.596;2023-04-21T05:52:08;27.23;;;13.77;;
37280;SDS011;23169;41.804;12.596;2023-04-21T05:54:38;27.40;;;13.13;;
37280;SDS011;23169;41.804;12.596;2023-04-21T05:57:07;26.65;;;13.15;;
37280;SDS011;23169;41.804;12.596;2023-04-21T05:59:37;26.05;;;11.98;;
37280;SDS011;23169;41.804;12.596;2023-04-21T06:02:06;27.27;;;11.55;;
37280;SDS011;23169;41.804;12.596;2023-04-21T06:04:37;24.45;;;12.20;;
37280;SDS011;23169;41.804;12.596;2023-04-21T06:07:08;26.65;;;11.65;;
37280;SDS011;23169;41.804;12.596;2023-04-21T06:09:43;24.20;;;11.52;;
37280;SDS011;23169;41.804;12.596;2023-04-21T06:12:13;23.00;;;11.00;;
37280;SDS011;23169;41.804;12.596;2023-04-21T06:14:42;23.27;;;10.43;;
37280;SDS011;23169;41.804;12.596;2023-04-21T06:17:14;21.75;;;10.98;;
37280;SDS011;23169;41.804;12.596;2023-04-21T06:19:45;23.17;;;11.18;;
37280;SDS011;23169;41.804;12.596;2023-04-21T06:22:24;23.35;;;10.73;;
37280;SDS011;23169;41.804;12.596;2023-04-21T06:24:54;22.75;;;10.18;;
37280;SDS011;23169;41.804;12.596;2023-04-21T06:27:23;22.85;;;10.05;;
37280;SDS011;23169;41.804;12.596;2023-04-21T06:29:55;21.95;;;10.73;;
37280;SDS011;23169;41.804;12.596;2023-04-21T06:32:23;21.33;;;9.75;;
37280;SDS011;23169;41.804;12.596;2023-04-21T06:34:52;23.25;;;10.70;;
37280;SDS011;23169;41.804;12.596;2023-04-21T06:37:20;20.38;;;10.15;;
37280;SDS011;23169;41.804;12.596;2023-04-21T06:39:49;25.65;;;9.73;;
37280;SDS011;23169;41.804;12.596;2023-04-21T06:42:18;19.35;;;9.50;;
37280;SDS011;23169;41.804;12.596;2023-04-21T06:44:47;20.90;;;9.85;;
37280;SDS011;23169;41.804;12.596;2023-04-21T06:47:15;20.67;;;9.70;;
37280;SDS011;23169;41.804;12.596;2023-04-21T06:49:44;21.42;;;9.75;;
37280;SDS011;23169;41.804;12.596;2023-04-21T06:52:12;22.20;;;9.65;;
37280;SDS011;23169;41.804;12.596;2023-04-21T06:54:42;25.10;;;9.60;;
37280;SDS011;23169;41.804;12.596;2023-04-21T06:57:10;19.52;;;9.27;;
37280;SDS011;23169;41.804;12.596;2023-04-21T06:59:40;18.75;;;9.38;;
37280;SDS011;23169;41.804;12.596;2023-04-21T07:02:08;18.85;;;9.43;;
37280;SDS011;23169;41.804;12.596;2023-04-21T07:04:37;21.25;;;9.65;;
37280;SDS011;23169;41.804;12.596;2023-04-21T07:07:05;21.42;;;9.30;;
37280;SDS011;23169;41.804;12.596;2023-04-21T07:09:34;21.52;;;9.73;;
37280;SDS011;23169;41.804;12.596;2023-04-21T07:12:03;18.67;;;8.63;;
37280;SDS011;23169;41.804;12.596;2023-04-21T07:14:31;17.90;;;8.80;;
37280;SDS011;23169;41.804;12.596;2023-04-21T07:17:00;19.48;;;8.77;;
37280;SDS011;23169;41.804;12.596;2023-04-21T07:19:29;19.70;;;8.70;;
37280;SDS011;23169;41.804;12.596;2023-04-21T07:21:58;19.83;;;8.68;;
37280;SDS011;23169;41.804;12.596;2023-04-21T07:24:26;17.27;;;8.30;;
37280;SDS011;23169;41.804;12.596;2023-04-21T07:26:55;19.58;;;8.88;;
37280;SDS011;23169;41.804;12.596;2023-04-21T07:29:23;17.42;;;8.20;;
37280;SDS011;23169;41.804;12.596;2023-04-21T07:31:53;16.58;;;8.40;;
37280;SDS011;23169;41.804;12.596;2023-04-21T07:34:23;18.35;;;8.55;;
37280;SDS011;23169;41.804;12.596;2023-04-21T07:36:53;18.05;;;7.82;;
37280;SDS011;23169;41.804;12.596;2023-04-21T07:39:23;16.63;;;8.20;;
37280;SDS011;23169;41.804;12.596;2023-04-21T07:41:51;18.17;;;8.30;;
37280;SDS011;23169;41.804;12.596;2023-04-21T07:44:20;19.00;;;8.90;;
37280;SDS011;23169;41.804;12.596;2023-04-21T07:46:49;17.77;;;8.70;;
37280;SDS011;23169;41.804;12.596;2023-04-21T07:49:18;17.67;;;7.78;;
37280;SDS011;23169;41.804;12.596;2023-04-21T07:51:46;17.77;;;7.65;;
37280;SDS011;23169;41.804;12.596;2023-04-21T07:54:15;16.95;;;7.78;;
37280;SDS011;23169;41.804;12.596;2023-04-21T07:56:44;21.90;;;9.05;;
37280;SDS011;23169;41.804;12.596;2023-04-21T07:59:13;15.05;;;7.22;;
